sensor_id;sensor_type;location;lat;lon;timestamp;temperature;humidity
57843;DHT22;43673;51.058;3.734;2023-03-12T00:01:18;7.00;99.90
57843;DHT22;43673;51.058;3.734;2023-03-12T00:03:44;6.90;99.90
57843;DHT22;43673;51.058;3.734;2023-03-12T00:06:11;7.00;99.90
57843;DHT22;43673;51.058;3.734;2023-03-12T00:08:37;7.00;99.90
57843;DHT22;43673;51.058;3.734;2023-03-12T00:11:12;7.00;99.90
57843;DHT22;43673;51.058;3.734;2023-03-12T00:13:40;6.90;99.90
57843;DHT22;43673;51.058;3.734;2023-03-12T00:16:10;6.90;99.90
57843;DHT22;43673;51.058;3.734;2023-03-12T00:18:36;6.90;99.90
57843;DHT22;43673;51.058;3.734;2023-03-12T00:21:03;6.90;99.90
57843;DHT22;43673;51.058;3.734;2023-03-12T00:23:29;7.00;99.90
57843;DHT22;43673;51.058;3.734;2023-03-12T00:26:10;6.90;99.90
57843;DHT22;43673;51.058;3.734;2023-03-12T00:28:36;6.80;99.90
57843;DHT22;43673;51.058;3.734;2023-03-12T00:31:13;6.80;99.90
57843;DHT22;43673;51.058;3.734;2023-03-12T00:33:39;6.80;99.90
57843;DHT22;43673;51.058;3.734;2023-03-12T00:36:05;6.70;99.90
57843;DHT22;43673;51.058;3.734;2023-03-12T00:38:31;6.50;99.90
57843;DHT22;43673;51.058;3.734;2023-03-12T00:40:56;6.50;99.90
57843;DHT22;43673;51.058;3.734;2023-03-12T00:43:22;6.50;99.90
57843;DHT22;43673;51.058;3.734;2023-03-12T00:45:48;6.70;99.90
57843;DHT22;43673;51.058;3.734;2023-03-12T00:48:16;6.40;99.90
57843;DHT22;43673;51.058;3.734;2023-03-12T00:50:45;6.50;99.90
57843;DHT22;43673;51.058;3.734;2023-03-12T00:53:12;6.50;99.90
57843;DHT22;43673;51.058;3.734;2023-03-12T00:55:39;6.60;99.90
57843;DHT22;43673;51.058;3.734;2023-03-12T00:58:05;6.50;99.90
57843;DHT22;43673;51.058;3.734;2023-03-12T01:00:31;6.50;99.90
57843;DHT22;43673;51.058;3.734;2023-03-12T01:02:57;6.50;99.90
57843;DHT22;43673;51.058;3.734;2023-03-12T01:05:22;6.40;99.90
57843;DHT22;43673;51.058;3.734;2023-03-12T01:07:48;6.30;99.90
57843;DHT22;43673;51.058;3.734;2023-03-12T01:10:16;6.30;99.90
57843;DHT22;43673;51.058;3.734;2023-03-12T01:12:43;6.30;99.90
57843;DHT22;43673;51.058;3.734;2023-03-12T01:15:13;6.30;99.90
57843;DHT22;43673;51.058;3.734;2023-03-12T01:17:39;6.20;99.90
57843;DHT22;43673;51.058;3.734;2023-03-12T01:20:05;6.20;99.90
57843;DHT22;43673;51.058;3.734;2023-03-12T01:22:33;6.20;99.90
57843;DHT22;43673;51.058;3.734;2023-03-12T01:24:58;6.20;99.90
57843;DHT22;43673;51.058;3.734;2023-03-12T01:27:24;6.20;99.90
57843;DHT22;43673;51.058;3.734;2023-03-12T01:29:50;6.20;99.90
57843;DHT22;43673;51.058;3.734;2023-03-12T01:32:15;6.20;99.90
57843;DHT22;43673;51.058;3.734;2023-03-12T01:34:42;6.30;99.90
57843;DHT22;43673;51.058;3.734;2023-03-12T01:37:08;6.20;99.90
57843;DHT22;43673;51.058;3.734;2023-03-12T01:39:35;6.30;99.90
57843;DHT22;43673;51.058;3.734;2023-03-12T01:42:01;6.30;99.90
57843;DHT22;43673;51.058;3.734;2023-03-12T01:44:28;6.30;99.90
57843;DHT22;43673;51.058;3.734;2023-03-12T01:46:54;6.30;99.90
57843;DHT22;43673;51.058;3.734;2023-03-12T01:52:07;6.20;99.90
57843;DHT22;43673;51.058;3.734;2023-03-12T01:57:02;6.10;99.90
57843;DHT22;43673;51.058;3.734;2023-03-12T01:59:40;6.10;99.90
57843;DHT22;43673;51.058;3.734;2023-03-12T02:02:08;6.10;99.90
57843;DHT22;43673;51.058;3.734;2023-03-12T02:04:36;6.00;99.90
57843;DHT22;43673;51.058;3.734;2023-03-12T02:07:09;5.90;99.90
57843;DHT22;43673;51.058;3.734;2023-03-12T02:09:40;5.80;99.90
57843;DHT22;43673;51.058;3.734;2023-03-12T02:12:07;5.80;99.90
57843;DHT22;43673;51.058;3.734;2023-03-12T02:14:34;5.70;99.90
57843;DHT22;43673;51.058;3.734;2023-03-12T02:17:00;5.70;99.90
57843;DHT22;43673;51.058;3.734;2023-03-12T02:22:15;5.70;99.90
57843;DHT22;43673;51.058;3.734;2023-03-12T02:27:33;5.80;99.90
57843;DHT22;43673;51.058;3.734;2023-03-12T02:30:03;5.90;99.90
57843;DHT22;43673;51.058;3.734;2023-03-12T02:32:33;6.00;99.90
57843;DHT22;43673;51.058;3.734;2023-03-12T02:35:01;6.00;99.90
57843;DHT22;43673;51.058;3.734;2023-03-12T02:37:27;6.10;99.90
57843;DHT22;43673;51.058;3.734;2023-03-12T02:40:04;6.10;99.90
57843;DHT22;43673;51.058;3.734;2023-03-12T02:42:31;6.10;99.90
57843;DHT22;43673;51.058;3.734;2023-03-12T02:44:57;6.10;99.90
57843;DHT22;43673;51.058;3.734;2023-03-12T02:47:23;6.20;99.90
57843;DHT22;43673;51.058;3.734;2023-03-12T02:49:49;6.20;99.90
57843;DHT22;43673;51.058;3.734;2023-03-12T02:52:14;6.20;99.90
57843;DHT22;43673;51.058;3.734;2023-03-12T02:54:41;6.20;99.90
57843;DHT22;43673;51.058;3.734;2023-03-12T02:57:07;6.20;99.90
57843;DHT22;43673;51.058;3.734;2023-03-12T02:59:32;6.20;99.90
57843;DHT22;43673;51.058;3.734;2023-03-12T03:02:00;6.10;99.90
57843;DHT22;43673;51.058;3.734;2023-03-12T03:04:27;6.10;99.90
57843;DHT22;43673;51.058;3.734;2023-03-12T03:06:53;6.20;99.90
57843;DHT22;43673;51.058;3.734;2023-03-12T03:09:19;6.20;99.90
57843;DHT22;43673;51.058;3.734;2023-03-12T03:11:47;6.20;99.90
57843;DHT22;43673;51.058;3.734;2023-03-12T03:14:14;6.20;99.90
57843;DHT22;43673;51.058;3.734;2023-03-12T03:16:39;6.20;99.90
57843;DHT22;43673;51.058;3.734;2023-03-12T03:19:06;6.30;99.90
57843;DHT22;43673;51.058;3.734;2023-03-12T03:21:32;6.20;99.90
57843;DHT22;43673;51.058;3.734;2023-03-12T03:23:59;6.20;99.90
57843;DHT22;43673;51.058;3.734;2023-03-12T03:26:25;6.20;99.90
57843;DHT22;43673;51.058;3.734;2023-03-12T03:28:51;6.20;99.90
57843;DHT22;43673;51.058;3.734;2023-03-12T03:31:17;6.30;99.90
57843;DHT22;43673;51.058;3.734;2023-03-12T03:33:44;6.20;99.90
57843;DHT22;43673;51.058;3.734;2023-03-12T03:36:10;6.20;99.90
57843;DHT22;43673;51.058;3.734;2023-03-12T03:38:39;6.30;99.90
57843;DHT22;43673;51.058;3.734;2023-03-12T03:41:06;6.20;99.90
57843;DHT22;43673;51.058;3.734;2023-03-12T03:43:31;6.20;99.90
57843;DHT22;43673;51.058;3.734;2023-03-12T03:46:01;6.20;99.90
57843;DHT22;43673;51.058;3.734;2023-03-12T03:48:28;6.20;99.90
57843;DHT22;43673;51.058;3.734;2023-03-12T03:50:54;6.20;99.90
57843;DHT22;43673;51.058;3.734;2023-03-12T03:53:19;6.20;99.90
57843;DHT22;43673;51.058;3.734;2023-03-12T03:55:45;6.20;99.90
57843;DHT22;43673;51.058;3.734;2023-03-12T03:58:11;6.30;99.90
57843;DHT22;43673;51.058;3.734;2023-03-12T04:00:37;6.20;99.90
57843;DHT22;43673;51.058;3.734;2023-03-12T04:03:03;6.30;99.90
57843;DHT22;43673;51.058;3.734;2023-03-12T04:05:29;6.30;99.90
57843;DHT22;43673;51.058;3.734;2023-03-12T04:07:55;6.30;99.90
57843;DHT22;43673;51.058;3.734;2023-03-12T04:10:23;6.40;99.90
57843;DHT22;43673;51.058;3.734;2023-03-12T04:12:49;6.50;99.90
57843;DHT22;43673;51.058;3.734;2023-03-12T04:15:16;6.60;99.90
57843;DHT22;43673;51.058;3.734;2023-03-12T04:17:42;6.60;99.90
57843;DHT22;43673;51.058;3.734;2023-03-12T04:20:08;6.60;99.90
57843;DHT22;43673;51.058;3.734;2023-03-12T04:22:36;6.60;99.90
57843;DHT22;43673;51.058;3.734;2023-03-12T04:25:03;6.70;99.90
57843;DHT22;43673;51.058;3.734;2023-03-12T04:27:29;6.80;99.90
57843;DHT22;43673;51.058;3.734;2023-03-12T04:29:54;6.80;99.90
57843;DHT22;43673;51.058;3.734;2023-03-12T04:32:20;6.80;99.90
57843;DHT22;43673;51.058;3.734;2023-03-12T04:34:46;6.80;99.90
57843;DHT22;43673;51.058;3.734;2023-03-12T04:37:11;6.90;99.90
57843;DHT22;43673;51.058;3.734;2023-03-12T04:39:41;6.80;99.90
57843;DHT22;43673;51.058;3.734;2023-03-12T04:42:06;6.80;99.90
57843;DHT22;43673;51.058;3.734;2023-03-12T04:44:32;6.80;99.90
57843;DHT22;43673;51.058;3.734;2023-03-12T04:46:58;6.80;99.90
57843;DHT22;43673;51.058;3.734;2023-03-12T04:49:24;6.90;99.90
57843;DHT22;43673;51.058;3.734;2023-03-12T04:51:50;6.80;99.90
57843;DHT22;43673;51.058;3.734;2023-03-12T04:54:15;6.70;99.90
57843;DHT22;43673;51.058;3.734;2023-03-12T04:56:41;6.80;99.90
57843;DHT22;43673;51.058;3.734;2023-03-12T04:59:07;6.90;99.90
57843;DHT22;43673;51.058;3.734;2023-03-12T05:01:34;6.90;99.90
57843;DHT22;43673;51.058;3.734;2023-03-12T05:04:01;7.00;99.90
57843;DHT22;43673;51.058;3.734;2023-03-12T05:06:27;7.00;99.90
57843;DHT22;43673;51.058;3.734;2023-03-12T05:08:53;7.00;99.90
57843;DHT22;43673;51.058;3.734;2023-03-12T05:11:19;7.00;99.90
57843;DHT22;43673;51.058;3.734;2023-03-12T05:13:46;7.10;99.90
57843;DHT22;43673;51.058;3.734;2023-03-12T05:16:12;7.10;99.90
57843;DHT22;43673;51.058;3.734;2023-03-12T05:18:38;7.10;99.90
57843;DHT22;43673;51.058;3.734;2023-03-12T05:21:10;7.30;99.90
57843;DHT22;43673;51.058;3.734;2023-03-12T05:23:37;7.10;99.90
57843;DHT22;43673;51.058;3.734;2023-03-12T05:26:07;7.10;99.90
57843;DHT22;43673;51.058;3.734;2023-03-12T05:28:33;7.00;99.90
57843;DHT22;43673;51.058;3.734;2023-03-12T05:30:59;7.00;99.90
57843;DHT22;43673;51.058;3.734;2023-03-12T05:33:26;7.00;99.90
57843;DHT22;43673;51.058;3.734;2023-03-12T05:35:52;6.90;99.90
57843;DHT22;43673;51.058;3.734;2023-03-12T05:38:18;7.00;99.90
57843;DHT22;43673;51.058;3.734;2023-03-12T05:40:51;7.00;99.90
57843;DHT22;43673;51.058;3.734;2023-03-12T05:43:17;7.00;99.90
57843;DHT22;43673;51.058;3.734;2023-03-12T05:45:43;7.10;99.90
57843;DHT22;43673;51.058;3.734;2023-03-12T05:48:09;7.20;99.90
57843;DHT22;43673;51.058;3.734;2023-03-12T05:50:34;7.20;99.90
57843;DHT22;43673;51.058;3.734;2023-03-12T05:53:00;7.20;99.90
57843;DHT22;43673;51.058;3.734;2023-03-12T05:55:26;7.30;99.90
57843;DHT22;43673;51.058;3.734;2023-03-12T05:57:51;7.30;99.90
57843;DHT22;43673;51.058;3.734;2023-03-12T06:00:18;7.40;99.90
57843;DHT22;43673;51.058;3.734;2023-03-12T06:02:44;7.40;99.90
57843;DHT22;43673;51.058;3.734;2023-03-12T06:05:10;7.40;99.90
57843;DHT22;43673;51.058;3.734;2023-03-12T06:07:36;7.50;99.90
57843;DHT22;43673;51.058;3.734;2023-03-12T06:10:02;7.60;99.90
57843;DHT22;43673;51.058;3.734;2023-03-12T06:12:28;7.70;99.90
57843;DHT22;43673;51.058;3.734;2023-03-12T06:14:54;7.70;99.90
57843;DHT22;43673;51.058;3.734;2023-03-12T06:17:21;7.70;99.90
57843;DHT22;43673;51.058;3.734;2023-03-12T06:19:50;7.80;99.90
57843;DHT22;43673;51.058;3.734;2023-03-12T06:22:17;7.90;99.90
57843;DHT22;43673;51.058;3.734;2023-03-12T06:24:43;7.90;99.90
57843;DHT22;43673;51.058;3.734;2023-03-12T06:27:12;8.00;99.90
57843;DHT22;43673;51.058;3.734;2023-03-12T06:29:38;8.00;99.90
57843;DHT22;43673;51.058;3.734;2023-03-12T06:32:03;8.10;99.90
57843;DHT22;43673;51.058;3.734;2023-03-12T06:34:29;8.10;99.90
57843;DHT22;43673;51.058;3.734;2023-03-12T06:36:55;8.20;99.90
57843;DHT22;43673;51.058;3.734;2023-03-12T06:39:21;8.20;99.90
57843;DHT22;43673;51.058;3.734;2023-03-12T06:41:46;8.30;99.90
57843;DHT22;43673;51.058;3.734;2023-03-12T06:44:12;8.40;99.90
57843;DHT22;43673;51.058;3.734;2023-03-12T06:46:37;8.40;99.90
57843;DHT22;43673;51.058;3.734;2023-03-12T06:49:03;8.40;99.90
57843;DHT22;43673;51.058;3.734;2023-03-12T06:51:29;8.50;99.90
57843;DHT22;43673;51.058;3.734;2023-03-12T06:53:55;8.50;99.90
57843;DHT22;43673;51.058;3.734;2023-03-12T06:56:20;8.60;99.90
57843;DHT22;43673;51.058;3.734;2023-03-12T06:58:46;8.60;99.90
57843;DHT22;43673;51.058;3.734;2023-03-12T07:01:12;8.70;99.90
57843;DHT22;43673;51.058;3.734;2023-03-12T07:03:37;8.70;99.90
57843;DHT22;43673;51.058;3.734;2023-03-12T07:06:03;8.80;99.90
57843;DHT22;43673;51.058;3.734;2023-03-12T07:08:29;8.90;99.90
57843;DHT22;43673;51.058;3.734;2023-03-12T07:10:56;8.90;99.90
57843;DHT22;43673;51.058;3.734;2023-03-12T07:13:22;9.00;99.90
57843;DHT22;43673;51.058;3.734;2023-03-12T07:15:48;9.10;99.90
57843;DHT22;43673;51.058;3.734;2023-03-12T07:18:14;9.20;99.90
57843;DHT22;43673;51.058;3.734;2023-03-12T07:20:42;9.30;99.90
57843;DHT22;43673;51.058;3.734;2023-03-12T07:23:08;9.40;99.90
57843;DHT22;43673;51.058;3.734;2023-03-12T07:25:35;9.50;99.90
57843;DHT22;43673;51.058;3.734;2023-03-12T07:28:02;9.50;99.90
57843;DHT22;43673;51.058;3.734;2023-03-12T07:30:28;9.60;99.90
57843;DHT22;43673;51.058;3.734;2023-03-12T07:33:04;9.70;99.90
57843;DHT22;43673;51.058;3.734;2023-03-12T07:35:30;9.90;99.90
57843;DHT22;43673;51.058;3.734;2023-03-12T07:37:57;10.00;99.90
57843;DHT22;43673;51.058;3.734;2023-03-12T07:40:23;10.10;99.90
57843;DHT22;43673;51.058;3.734;2023-03-12T07:42:49;10.10;99.90
57843;DHT22;43673;51.058;3.734;2023-03-12T07:45:15;10.20;99.90
57843;DHT22;43673;51.058;3.734;2023-03-12T07:47:41;10.30;99.90
57843;DHT22;43673;51.058;3.734;2023-03-12T07:50:07;10.40;99.90
57843;DHT22;43673;51.058;3.734;2023-03-12T07:52:33;10.50;99.90
57843;DHT22;43673;51.058;3.734;2023-03-12T07:54:58;10.60;99.90
57843;DHT22;43673;51.058;3.734;2023-03-12T07:57:24;10.70;99.90
57843;DHT22;43673;51.058;3.734;2023-03-12T07:59:50;10.70;99.90
57843;DHT22;43673;51.058;3.734;2023-03-12T08:02:16;10.80;99.90
57843;DHT22;43673;51.058;3.734;2023-03-12T08:04:41;10.80;99.90
57843;DHT22;43673;51.058;3.734;2023-03-12T08:07:07;10.90;99.90
57843;DHT22;43673;51.058;3.734;2023-03-12T08:09:33;11.00;99.90
57843;DHT22;43673;51.058;3.734;2023-03-12T08:11:59;11.20;99.90
57843;DHT22;43673;51.058;3.734;2023-03-12T08:14:25;11.40;99.90
57843;DHT22;43673;51.058;3.734;2023-03-12T08:16:54;11.70;99.90
57843;DHT22;43673;51.058;3.734;2023-03-12T08:19:19;11.80;99.90
57843;DHT22;43673;51.058;3.734;2023-03-12T08:21:45;11.90;99.90
57843;DHT22;43673;51.058;3.734;2023-03-12T08:24:11;11.90;99.90
57843;DHT22;43673;51.058;3.734;2023-03-12T08:26:36;11.90;99.90
57843;DHT22;43673;51.058;3.734;2023-03-12T08:29:02;11.90;99.90
57843;DHT22;43673;51.058;3.734;2023-03-12T08:31:28;12.00;99.90
57843;DHT22;43673;51.058;3.734;2023-03-12T08:33:54;12.30;99.90
57843;DHT22;43673;51.058;3.734;2023-03-12T08:36:19;12.50;99.90
57843;DHT22;43673;51.058;3.734;2023-03-12T08:38:45;12.70;99.90
57843;DHT22;43673;51.058;3.734;2023-03-12T08:41:11;13.00;99.90
57843;DHT22;43673;51.058;3.734;2023-03-12T08:43:36;13.10;99.90
57843;DHT22;43673;51.058;3.734;2023-03-12T08:46:02;13.10;99.90
57843;DHT22;43673;51.058;3.734;2023-03-12T08:48:30;13.10;99.90
57843;DHT22;43673;51.058;3.734;2023-03-12T08:51:00;12.80;99.90
57843;DHT22;43673;51.058;3.734;2023-03-12T08:53:30;12.80;99.90
57843;DHT22;43673;51.058;3.734;2023-03-12T08:55:56;12.70;99.90
57843;DHT22;43673;51.058;3.734;2023-03-12T08:58:24;12.70;99.90
57843;DHT22;43673;51.058;3.734;2023-03-12T09:00:50;12.70;99.90
57843;DHT22;43673;51.058;3.734;2023-03-12T09:03:17;12.80;99.90
57843;DHT22;43673;51.058;3.734;2023-03-12T09:05:43;12.80;99.90
57843;DHT22;43673;51.058;3.734;2023-03-12T09:08:09;12.80;99.90
57843;DHT22;43673;51.058;3.734;2023-03-12T09:10:36;12.70;99.90
57843;DHT22;43673;51.058;3.734;2023-03-12T09:13:02;13.00;99.90
57843;DHT22;43673;51.058;3.734;2023-03-12T09:15:29;13.40;99.90
57843;DHT22;43673;51.058;3.734;2023-03-12T09:17:55;13.60;99.90
57843;DHT22;43673;51.058;3.734;2023-03-12T09:20:21;13.90;99.90
57843;DHT22;43673;51.058;3.734;2023-03-12T09:22:48;14.00;99.90
57843;DHT22;43673;51.058;3.734;2023-03-12T09:25:14;14.20;99.90
57843;DHT22;43673;51.058;3.734;2023-03-12T09:27:45;14.20;99.90
57843;DHT22;43673;51.058;3.734;2023-03-12T09:30:17;14.40;99.90
57843;DHT22;43673;51.058;3.734;2023-03-12T09:32:43;14.70;99.90
57843;DHT22;43673;51.058;3.734;2023-03-12T09:35:10;15.00;99.90
57843;DHT22;43673;51.058;3.734;2023-03-12T09:37:36;15.00;99.90
57843;DHT22;43673;51.058;3.734;2023-03-12T09:40:03;14.80;99.90
57843;DHT22;43673;51.058;3.734;2023-03-12T09:42:57;14.60;99.90
57843;DHT22;43673;51.058;3.734;2023-03-12T09:45:27;14.40;99.90
57843;DHT22;43673;51.058;3.734;2023-03-12T09:47:57;14.50;99.90
57843;DHT22;43673;51.058;3.734;2023-03-12T09:50:47;14.60;99.90
57843;DHT22;43673;51.058;3.734;2023-03-12T09:55:41;14.90;99.90
57843;DHT22;43673;51.058;3.734;2023-03-12T10:01:19;15.00;99.90
57843;DHT22;43673;51.058;3.734;2023-03-12T10:06:38;15.10;99.90
57843;DHT22;43673;51.058;3.734;2023-03-12T10:20:52;16.40;99.90
57843;DHT22;43673;51.058;3.734;2023-03-12T10:26:22;16.50;99.90
57843;DHT22;43673;51.058;3.734;2023-03-12T10:28:58;16.80;99.90
57843;DHT22;43673;51.058;3.734;2023-03-12T10:31:30;16.90;99.90
57843;DHT22;43673;51.058;3.734;2023-03-12T10:33:59;16.90;99.90
57843;DHT22;43673;51.058;3.734;2023-03-12T10:36:35;17.20;99.90
57843;DHT22;43673;51.058;3.734;2023-03-12T10:39:03;17.30;99.90
57843;DHT22;43673;51.058;3.734;2023-03-12T10:41:30;17.30;99.90
57843;DHT22;43673;51.058;3.734;2023-03-12T10:44:00;17.40;99.90
57843;DHT22;43673;51.058;3.734;2023-03-12T10:46:40;17.60;99.90
57843;DHT22;43673;51.058;3.734;2023-03-12T10:52:09;17.40;99.90
57843;DHT22;43673;51.058;3.734;2023-03-12T10:54:40;17.10;99.90
57843;DHT22;43673;51.058;3.734;2023-03-12T10:57:09;17.10;99.90
57843;DHT22;43673;51.058;3.734;2023-03-12T10:59:38;17.30;99.90
57843;DHT22;43673;51.058;3.734;2023-03-12T11:02:30;17.50;99.90
57843;DHT22;43673;51.058;3.734;2023-03-12T11:04:57;17.40;99.90
57843;DHT22;43673;51.058;3.734;2023-03-12T11:07:34;17.30;99.90
57843;DHT22;43673;51.058;3.734;2023-03-12T11:10:16;16.90;99.90
57843;DHT22;43673;51.058;3.734;2023-03-12T11:12:59;16.60;99.90
57843;DHT22;43673;51.058;3.734;2023-03-12T11:15:40;16.40;99.90
57843;DHT22;43673;51.058;3.734;2023-03-12T11:23:37;16.40;99.90
57843;DHT22;43673;51.058;3.734;2023-03-12T11:28:37;16.20;99.90
57843;DHT22;43673;51.058;3.734;2023-03-12T11:31:12;16.00;99.90
57843;DHT22;43673;51.058;3.734;2023-03-12T11:33:38;15.80;99.90
57843;DHT22;43673;51.058;3.734;2023-03-12T11:36:20;15.70;99.90
57843;DHT22;43673;51.058;3.734;2023-03-12T11:57:01;15.40;99.90
57843;DHT22;43673;51.058;3.734;2023-03-12T11:59:52;15.40;99.90
57843;DHT22;43673;51.058;3.734;2023-03-12T12:06:27;15.60;99.90
57843;DHT22;43673;51.058;3.734;2023-03-12T12:08:54;15.60;99.90
57843;DHT22;43673;51.058;3.734;2023-03-12T12:22:45;15.10;99.90
57843;DHT22;43673;51.058;3.734;2023-03-12T12:25:27;14.90;99.90
57843;DHT22;43673;51.058;3.734;2023-03-12T12:36:16;15.20;99.90
57843;DHT22;43673;51.058;3.734;2023-03-12T12:38:55;15.10;99.90
57843;DHT22;43673;51.058;3.734;2023-03-12T12:41:28;15.00;99.90
57843;DHT22;43673;51.058;3.734;2023-03-12T12:44:05;14.90;99.90
57843;DHT22;43673;51.058;3.734;2023-03-12T12:46:55;14.80;99.90
57843;DHT22;43673;51.058;3.734;2023-03-12T12:49:42;14.80;99.90
57843;DHT22;43673;51.058;3.734;2023-03-12T12:52:18;14.80;99.90
57843;DHT22;43673;51.058;3.734;2023-03-12T12:58:01;15.00;99.90
57843;DHT22;43673;51.058;3.734;2023-03-12T13:00:42;15.10;99.90
57843;DHT22;43673;51.058;3.734;2023-03-12T13:03:32;15.10;99.90
57843;DHT22;43673;51.058;3.734;2023-03-12T13:06:01;15.20;99.90
57843;DHT22;43673;51.058;3.734;2023-03-12T13:19:24;15.60;99.90
57843;DHT22;43673;51.058;3.734;2023-03-12T13:27:24;15.20;99.90
57843;DHT22;43673;51.058;3.734;2023-03-12T13:29:53;15.20;99.90
57843;DHT22;43673;51.058;3.734;2023-03-12T13:33:02;15.30;99.90
57843;DHT22;43673;51.058;3.734;2023-03-12T13:40:33;15.00;99.90
57843;DHT22;43673;51.058;3.734;2023-03-12T13:43:30;15.10;99.90
57843;DHT22;43673;51.058;3.734;2023-03-12T13:46:06;15.00;99.90
57843;DHT22;43673;51.058;3.734;2023-03-12T13:48:36;15.00;99.90
57843;DHT22;43673;51.058;3.734;2023-03-12T13:51:19;14.90;99.90
57843;DHT22;43673;51.058;3.734;2023-03-12T13:56:35;14.70;99.90
57843;DHT22;43673;51.058;3.734;2023-03-12T13:59:27;14.70;99.90
57843;DHT22;43673;51.058;3.734;2023-03-12T14:02:04;14.60;99.90
57843;DHT22;43673;51.058;3.734;2023-03-12T14:04:49;14.60;99.90
57843;DHT22;43673;51.058;3.734;2023-03-12T14:12:58;14.60;99.90
57843;DHT22;43673;51.058;3.734;2023-03-12T14:18:19;14.80;99.90
57843;DHT22;43673;51.058;3.734;2023-03-12T14:21:00;15.00;99.90
57843;DHT22;43673;51.058;3.734;2023-03-12T14:23:32;14.90;99.90
57843;DHT22;43673;51.058;3.734;2023-03-12T14:26:01;14.90;99.90
57843;DHT22;43673;51.058;3.734;2023-03-12T14:28:28;14.70;99.90
57843;DHT22;43673;51.058;3.734;2023-03-12T14:31:06;14.60;99.90
57843;DHT22;43673;51.058;3.734;2023-03-12T14:33:42;14.60;99.90
57843;DHT22;43673;51.058;3.734;2023-03-12T14:36:19;14.50;99.90
57843;DHT22;43673;51.058;3.734;2023-03-12T14:38:48;14.30;99.90
57843;DHT22;43673;51.058;3.734;2023-03-12T14:41:24;14.30;99.90
57843;DHT22;43673;51.058;3.734;2023-03-12T14:43:56;14.20;99.90
57843;DHT22;43673;51.058;3.734;2023-03-12T14:46:34;14.20;99.90
57843;DHT22;43673;51.058;3.734;2023-03-12T14:49:18;14.10;99.90
57843;DHT22;43673;51.058;3.734;2023-03-12T14:52:12;14.20;99.90
57843;DHT22;43673;51.058;3.734;2023-03-12T14:55:06;14.20;99.90
57843;DHT22;43673;51.058;3.734;2023-03-12T14:57:33;14.20;99.90
57843;DHT22;43673;51.058;3.734;2023-03-12T15:00:03;14.20;99.90
57843;DHT22;43673;51.058;3.734;2023-03-12T15:02:31;14.20;99.90
57843;DHT22;43673;51.058;3.734;2023-03-12T15:05:13;14.20;99.90
57843;DHT22;43673;51.058;3.734;2023-03-12T15:07:51;14.10;99.90
57843;DHT22;43673;51.058;3.734;2023-03-12T15:10:25;14.10;99.90
57843;DHT22;43673;51.058;3.734;2023-03-12T15:12:57;14.10;99.90
57843;DHT22;43673;51.058;3.734;2023-03-12T15:15:41;14.10;99.90
57843;DHT22;43673;51.058;3.734;2023-03-12T15:18:27;14.10;99.90
57843;DHT22;43673;51.058;3.734;2023-03-12T15:20:56;13.90;99.90
57843;DHT22;43673;51.058;3.734;2023-03-12T15:23:25;13.80;99.90
57843;DHT22;43673;51.058;3.734;2023-03-12T15:26:08;13.80;99.90
57843;DHT22;43673;51.058;3.734;2023-03-12T15:28:34;13.70;99.90
57843;DHT22;43673;51.058;3.734;2023-03-12T15:31:12;13.70;99.90
57843;DHT22;43673;51.058;3.734;2023-03-12T15:33:43;13.70;99.90
57843;DHT22;43673;51.058;3.734;2023-03-12T15:36:19;13.70;99.90
57843;DHT22;43673;51.058;3.734;2023-03-12T15:38:58;13.70;99.90
57843;DHT22;43673;51.058;3.734;2023-03-12T15:41:45;13.60;99.90
57843;DHT22;43673;51.058;3.734;2023-03-12T15:44:25;13.60;99.90
57843;DHT22;43673;51.058;3.734;2023-03-12T15:47:10;13.50;99.90
57843;DHT22;43673;51.058;3.734;2023-03-12T15:49:38;13.40;99.90
57843;DHT22;43673;51.058;3.734;2023-03-12T15:52:33;13.30;99.90
57843;DHT22;43673;51.058;3.734;2023-03-12T15:57:34;13.20;99.90
57843;DHT22;43673;51.058;3.734;2023-03-12T16:05:04;13.30;99.90
57843;DHT22;43673;51.058;3.734;2023-03-12T16:07:30;13.20;99.90
57843;DHT22;43673;51.058;3.734;2023-03-12T16:09:56;13.30;99.90
57843;DHT22;43673;51.058;3.734;2023-03-12T16:12:22;13.40;99.90
57843;DHT22;43673;51.058;3.734;2023-03-12T16:14:48;13.40;99.90
57843;DHT22;43673;51.058;3.734;2023-03-12T16:17:16;13.40;99.90
57843;DHT22;43673;51.058;3.734;2023-03-12T16:19:43;13.40;99.90
57843;DHT22;43673;51.058;3.734;2023-03-12T16:22:10;13.30;99.90
57843;DHT22;43673;51.058;3.734;2023-03-12T16:24:36;13.30;99.90
57843;DHT22;43673;51.058;3.734;2023-03-12T16:27:02;13.30;99.90
57843;DHT22;43673;51.058;3.734;2023-03-12T16:29:36;13.30;99.90
57843;DHT22;43673;51.058;3.734;2023-03-12T16:32:13;13.30;99.90
57843;DHT22;43673;51.058;3.734;2023-03-12T16:34:40;13.20;99.90
57843;DHT22;43673;51.058;3.734;2023-03-12T16:37:11;13.20;99.90
57843;DHT22;43673;51.058;3.734;2023-03-12T16:39:37;13.30;99.90
57843;DHT22;43673;51.058;3.734;2023-03-12T16:42:13;13.30;99.90
57843;DHT22;43673;51.058;3.734;2023-03-12T16:44:40;13.20;99.90
57843;DHT22;43673;51.058;3.734;2023-03-12T16:47:13;13.20;99.90
57843;DHT22;43673;51.058;3.734;2023-03-12T16:49:42;13.20;99.90
57843;DHT22;43673;51.058;3.734;2023-03-12T16:52:19;13.10;99.90
57843;DHT22;43673;51.058;3.734;2023-03-12T16:54:47;13.10;99.90
57843;DHT22;43673;51.058;3.734;2023-03-12T16:57:31;13.00;99.90
57843;DHT22;43673;51.058;3.734;2023-03-12T17:00:02;12.90;99.90
57843;DHT22;43673;51.058;3.734;2023-03-12T17:02:33;12.90;99.90
57843;DHT22;43673;51.058;3.734;2023-03-12T17:05:00;12.90;99.90
57843;DHT22;43673;51.058;3.734;2023-03-12T17:07:25;12.90;99.90
57843;DHT22;43673;51.058;3.734;2023-03-12T17:09:51;12.80;99.90
57843;DHT22;43673;51.058;3.734;2023-03-12T17:12:37;12.80;99.90
57843;DHT22;43673;51.058;3.734;2023-03-12T17:15:07;12.80;99.90
57843;DHT22;43673;51.058;3.734;2023-03-12T17:17:36;12.70;99.90
57843;DHT22;43673;51.058;3.734;2023-03-12T17:20:02;12.70;99.90
57843;DHT22;43673;51.058;3.734;2023-03-12T17:22:32;12.70;99.90
57843;DHT22;43673;51.058;3.734;2023-03-12T17:24:58;12.70;99.90
57843;DHT22;43673;51.058;3.734;2023-03-12T17:27:24;12.60;99.90
57843;DHT22;43673;51.058;3.734;2023-03-12T17:29:50;12.60;99.90
57843;DHT22;43673;51.058;3.734;2023-03-12T17:32:17;12.50;99.90
57843;DHT22;43673;51.058;3.734;2023-03-12T17:34:43;12.50;99.90
57843;DHT22;43673;51.058;3.734;2023-03-12T17:37:10;12.50;99.90
57843;DHT22;43673;51.058;3.734;2023-03-12T17:39:37;12.50;99.90
57843;DHT22;43673;51.058;3.734;2023-03-12T17:42:04;12.50;99.90
57843;DHT22;43673;51.058;3.734;2023-03-12T17:44:33;12.50;99.90
57843;DHT22;43673;51.058;3.734;2023-03-12T17:47:00;12.50;99.90
57843;DHT22;43673;51.058;3.734;2023-03-12T17:49:27;12.50;99.90
57843;DHT22;43673;51.058;3.734;2023-03-12T17:51:53;12.50;99.90
57843;DHT22;43673;51.058;3.734;2023-03-12T17:54:20;12.50;99.90
57843;DHT22;43673;51.058;3.734;2023-03-12T17:56:48;12.60;99.90
57843;DHT22;43673;51.058;3.734;2023-03-12T17:59:14;12.60;99.90
57843;DHT22;43673;51.058;3.734;2023-03-12T18:01:41;12.50;99.90